createdAt,value
2023-05-02T00:03:03.641Z,100780.20
2023-05-02T00:06:03.566Z,100782.69
2023-05-02T00:09:03.527Z,100782.08
2023-05-02T00:12:03.500Z,100787.50
2023-05-02T00:15:03.468Z,100794.89
2023-05-02T00:18:03.563Z,100795.60
2023-05-02T00:21:04.462Z,100798.56
2023-05-02T00:24:04.495Z,100793.56
2023-05-02T00:27:04.493Z,100795.96
2023-05-02T00:30:05.534Z,100799.48
2023-05-02T00:33:06.586Z,100801.25
2023-05-02T00:36:06.616Z,100802.85
2023-05-02T00:39:06.520Z,100807.62
2023-05-02T00:42:10.509Z,100810.09
2023-05-02T00:45:12.585Z,100812.04
2023-05-02T00:48:13.590Z,100812.27
2023-05-02T00:51:14.566Z,100811.36
2023-05-02T00:54:14.725Z,100812.77
2023-05-02T00:57:14.553Z,100819.01
2023-05-02T01:00:14.619Z,100824.33
2023-05-02T01:03:44.655Z,100827.38
2023-05-02T01:06:44.660Z,100831.32
2023-05-02T01:10:05.620Z,100829.05
2023-05-02T01:13:22.652Z,100830.42
2023-05-02T01:16:22.573Z,100834.86
2023-05-02T01:19:49.704Z,100834.04
2023-05-02T01:22:50.618Z,100834.58
2023-05-02T01:25:50.623Z,100836.35
2023-05-02T01:29:09.589Z,100839.87
2023-05-02T01:32:09.638Z,100837.00
2023-05-02T01:35:09.657Z,100837.98
2023-05-02T01:38:09.733Z,100839.82
2023-05-02T01:41:11.638Z,100843.30
2023-05-02T01:44:11.726Z,100843.30
2023-05-02T01:47:11.792Z,100846.02
2023-05-02T01:50:12.619Z,100848.79
2023-05-02T01:53:12.737Z,100849.19
2023-05-02T01:56:12.672Z,100847.52
2023-05-02T01:59:14.668Z,100853.02
2023-05-02T02:02:14.639Z,100849.70
2023-05-02T02:05:14.702Z,100849.56
2023-05-02T02:08:07.844Z,100852.79
2023-05-02T02:11:10.704Z,100849.26
2023-05-02T02:14:19.709Z,100849.95
2023-05-02T02:17:21.679Z,100854.11
2023-05-02T02:20:21.690Z,100851.79
2023-05-02T02:23:21.714Z,100856.36
2023-05-02T02:26:21.780Z,100854.23
2023-05-02T02:29:21.812Z,100856.14
2023-05-02T02:32:21.711Z,100854.89
2023-05-02T02:35:21.746Z,100853.81
2023-05-02T02:38:33.823Z,100854.64
2023-05-02T02:41:38.720Z,100853.45
2023-05-02T02:44:45.148Z,100850.79
2023-05-02T02:47:49.854Z,100848.65
2023-05-02T02:50:49.725Z,100848.86
2023-05-02T02:54:26.406Z,100858.77
2023-05-02T02:57:28.780Z,100864.67
2023-05-02T03:00:31.774Z,100866.38
2023-05-02T03:03:35.006Z,100868.17
2023-05-02T03:06:34.846Z,100869.61
2023-05-02T03:09:36.782Z,100867.25
2023-05-02T03:12:37.783Z,100872.09
2023-05-02T03:15:57.793Z,100871.80
2023-05-02T03:18:57.788Z,100879.79
2023-05-02T03:21:57.813Z,100879.86
2023-05-02T03:24:57.798Z,100884.59
2023-05-02T03:27:57.806Z,100890.80
2023-05-02T03:30:59.807Z,100899.36
2023-05-02T03:34:01.897Z,100903.38
2023-05-02T03:37:01.810Z,100904.70
2023-05-02T03:40:02.122Z,100908.08
2023-05-02T03:43:02.848Z,100912.34
2023-05-02T03:46:02.809Z,100911.73
2023-05-02T03:49:03.917Z,100921.89
2023-05-02T03:52:03.922Z,100924.58
2023-05-02T03:55:03.827Z,100922.60
2023-05-02T03:58:03.836Z,100925.98
2023-05-02T04:01:12.910Z,100927.42
2023-05-02T04:04:14.966Z,100928.29
2023-05-02T04:07:22.870Z,100931.10
2023-05-02T04:10:25.868Z,100933.33
2023-05-02T04:13:28.089Z,100929.88
2023-05-02T04:16:27.929Z,100929.61
2023-05-02T04:19:27.939Z,100938.95
2023-05-02T04:22:28.910Z,100940.55
2023-05-02T04:25:30.934Z,100937.12
2023-05-02T04:28:30.912Z,100946.04
2023-05-02T04:31:30.991Z,100949.06
2023-05-02T04:34:30.913Z,100954.21
2023-05-02T04:37:30.894Z,100956.32
2023-05-02T04:40:31.010Z,100955.39
2023-05-02T04:43:32.929Z,100955.63
2023-05-02T04:46:33.015Z,100956.52
2023-05-02T04:49:33.063Z,100954.86
2023-05-02T04:52:32.944Z,100949.81
2023-05-02T04:55:33.011Z,100951.70
2023-05-02T04:58:36.793Z,100951.94
2023-05-02T05:01:47.799Z,100954.08
2023-05-02T05:04:54.908Z,100959.63
2023-05-02T05:07:57.006Z,100960.84
2023-05-02T05:10:59.944Z,100963.13
2023-05-02T05:14:03.052Z,100959.86
2023-05-02T05:17:04.973Z,100966.76
2023-05-02T05:20:06.649Z,100955.93
2023-05-02T05:23:09.039Z,100957.84
2023-05-02T05:26:08.992Z,100964.68
2023-05-02T05:29:11.005Z,100960.19
2023-05-02T05:32:12.152Z,100957.02
2023-05-02T05:35:12.025Z,100950.98
2023-05-02T05:38:13.047Z,100948.11
2023-05-02T05:41:14.133Z,100955.19
2023-05-02T05:44:16.998Z,100948.77
2023-05-02T05:47:17.061Z,100953.89
2023-05-02T05:50:18.058Z,100951.50
2023-05-02T05:53:18.024Z,100956.48
2023-05-02T05:56:25.079Z,100947.76
2023-05-02T05:59:32.094Z,100945.92
2023-05-02T06:02:32.148Z,100939.77
2023-05-02T06:05:32.065Z,100943.16
2023-05-02T06:08:32.074Z,100959.41
2023-05-02T06:11:34.119Z,100951.11
2023-05-02T06:14:34.099Z,100950.94
2023-05-02T06:17:34.174Z,100943.54
2023-05-02T06:20:34.180Z,100945.50
2023-05-02T06:23:34.111Z,100941.64
2023-05-02T06:26:34.090Z,100936.89
2023-05-02T06:29:34.100Z,100938.34
2023-05-02T06:32:34.201Z,100942.38
2023-05-02T06:35:34.195Z,100939.65
2023-05-02T06:38:34.231Z,100948.23
2023-05-02T06:41:34.124Z,100948.83
2023-05-02T06:44:38.160Z,100948.33
2023-05-02T06:47:38.255Z,100944.05
2023-05-02T06:50:38.297Z,100941.00
2023-05-02T06:53:38.206Z,100946.49
2023-05-02T06:56:38.186Z,100948.04
2023-05-02T06:59:38.180Z,100949.55
2023-05-02T07:02:38.202Z,100948.98
2023-05-02T07:05:38.223Z,100950.27
2023-05-02T07:08:38.130Z,100949.44
2023-05-02T07:11:38.269Z,100940.46
2023-05-02T07:14:38.196Z,100948.58
2023-05-02T07:17:38.277Z,100958.06
2023-05-02T07:20:39.219Z,100960.33
2023-05-02T07:23:39.195Z,100953.45
2023-05-02T07:26:39.271Z,100950.55
2023-05-02T07:29:32.322Z,100953.67
2023-05-02T07:32:32.365Z,100954.52
2023-05-02T07:35:33.233Z,100949.71
2023-05-02T07:38:33.259Z,100960.27
2023-05-02T07:41:33.247Z,100948.30
2023-05-02T07:44:33.331Z,100954.88
2023-05-02T07:47:33.373Z,100955.30
2023-05-02T07:50:33.257Z,100956.61
2023-05-02T07:53:33.233Z,100954.24
2023-05-02T07:56:33.305Z,100948.32
2023-05-02T07:59:33.278Z,100939.58
2023-05-02T08:02:33.339Z,100953.23
2023-05-02T08:05:33.322Z,100956.04
2023-05-02T08:08:33.355Z,100942.50
2023-05-02T08:11:35.300Z,100934.89
2023-05-02T08:14:35.312Z,100941.85
2023-05-02T08:17:35.439Z,100938.19
2023-05-02T08:20:35.347Z,100934.19
2023-05-02T08:23:35.358Z,100935.05
2023-05-02T08:26:35.335Z,100938.88
2023-05-02T08:29:35.348Z,100936.64
2023-05-02T08:32:35.434Z,100933.67
2023-05-02T08:35:35.384Z,100936.22
2023-05-02T08:38:35.410Z,100937.27
2023-05-02T08:41:35.365Z,100929.09
2023-05-02T08:44:35.397Z,100930.65
2023-05-02T08:47:35.438Z,100925.39
2023-05-02T08:50:35.409Z,100919.46
2023-05-02T08:53:35.351Z,100919.11
2023-05-02T08:56:35.369Z,100909.01
2023-05-02T08:59:35.397Z,100910.54
2023-05-02T09:02:51.644Z,100897.44
2023-05-02T09:05:54.419Z,100893.52
2023-05-02T09:08:55.455Z,100901.15
2023-05-02T09:11:55.495Z,100892.48
2023-05-02T09:14:56.402Z,100888.85
2023-05-02T09:17:56.495Z,100885.48
2023-05-02T09:20:56.439Z,100882.13
2023-05-02T09:23:56.436Z,100883.20
2023-05-02T09:26:56.548Z,100883.27
2023-05-02T09:29:56.455Z,100883.52
2023-05-02T09:33:01.817Z,100870.87
2023-05-02T09:36:06.486Z,100867.38
2023-05-02T09:39:06.451Z,100862.25
2023-05-02T09:42:06.501Z,100861.91
2023-05-02T09:45:06.552Z,100858.38
2023-05-02T09:48:07.530Z,100860.02
2023-05-02T09:51:07.485Z,100869.64
2023-05-02T09:54:07.488Z,100869.21
2023-05-02T09:57:07.671Z,100859.80
2023-05-02T10:00:08.500Z,100855.52
2023-05-02T10:03:09.584Z,100853.77
2023-05-02T10:06:09.601Z,100852.90
2023-05-02T10:09:09.519Z,100850.73
2023-05-02T10:12:14.524Z,100848.18
2023-05-02T10:15:16.534Z,100841.27
2023-05-02T10:18:20.537Z,100847.23
2023-05-02T10:21:25.555Z,100849.84
2023-05-02T10:24:25.513Z,100850.75
2023-05-02T10:27:25.548Z,100848.02
2023-05-02T10:30:27.820Z,100842.70
2023-05-02T10:33:27.711Z,100831.98
2023-05-02T10:36:27.625Z,100833.20
2023-05-02T10:39:30.597Z,100838.14
2023-05-02T10:42:30.527Z,100832.81
2023-05-02T10:45:42.629Z,100832.45
2023-05-02T10:48:44.604Z,100833.10
2023-05-02T10:51:44.599Z,100829.02
2023-05-02T10:54:44.611Z,100829.61
2023-05-02T10:57:44.649Z,100823.17
2023-05-02T11:00:44.682Z,100831.41
2023-05-02T11:04:03.621Z,100824.61
2023-05-02T11:07:10.600Z,100815.84
2023-05-02T11:10:36.634Z,100809.21
2023-05-02T11:14:08.664Z,100825.64
2023-05-02T11:17:11.704Z,100807.17
2023-05-02T11:20:11.841Z,100804.61
2023-05-02T11:23:11.673Z,100806.10
2023-05-02T11:26:11.660Z,100819.17
2023-05-02T11:29:12.683Z,100812.90
2023-05-02T11:32:12.841Z,100804.17
2023-05-02T11:35:12.719Z,100814.79
2023-05-02T11:38:13.715Z,100807.27
2023-05-02T11:41:13.677Z,100815.30
2023-05-02T11:44:16.853Z,100808.23
2023-05-02T11:47:16.748Z,100808.87
2023-05-02T11:50:19.709Z,100795.76
2023-05-02T11:53:21.685Z,100802.83
2023-05-02T11:56:21.719Z,100807.46
2023-05-02T11:59:21.717Z,100796.05
2023-05-02T12:02:21.769Z,100774.15
2023-05-02T12:05:27.797Z,100781.83
2023-05-02T12:08:31.803Z,100778.34
2023-05-02T12:11:31.743Z,100777.59
2023-05-02T12:14:32.808Z,100779.30
2023-05-02T12:17:33.825Z,100768.11
2023-05-02T12:20:34.783Z,100790.28
2023-05-02T12:23:35.970Z,100774.27
2023-05-02T12:26:39.764Z,100761.52
2023-05-02T12:29:50.793Z,100766.77
2023-05-02T12:32:51.812Z,100761.41
2023-05-02T12:35:53.850Z,100782.39
2023-05-02T12:38:54.552Z,100769.42
2023-05-02T12:41:55.826Z,100759.52
2023-05-02T12:44:58.038Z,100762.11
2023-05-02T12:47:58.837Z,100761.14
2023-05-02T12:50:58.866Z,100751.13
2023-05-02T12:53:58.802Z,100745.50
2023-05-02T12:56:58.843Z,100742.52
2023-05-02T12:59:59.103Z,100746.55
2023-05-02T13:03:02.947Z,100744.11
2023-05-02T13:06:06.904Z,100749.91
2023-05-02T13:09:07.986Z,100735.89
2023-05-02T13:12:10.881Z,100735.63
2023-05-02T13:15:10.946Z,100732.27
2023-05-02T13:18:11.105Z,100745.80
2023-05-02T13:21:05.281Z,100732.09
2023-05-02T13:24:04.901Z,100747.40
2023-05-02T13:27:06.220Z,100732.31
2023-05-02T13:30:08.822Z,100725.40
2023-05-02T13:33:10.034Z,100714.62
2023-05-02T13:36:17.551Z,100722.80
2023-05-02T13:39:24.429Z,100716.83
2023-05-02T13:42:24.875Z,100719.70
2023-05-02T13:45:27.869Z,100713.85
2023-05-02T13:48:28.058Z,100709.45
2023-05-02T13:51:31.894Z,100715.84
2023-05-02T13:54:34.540Z,100713.89
2023-05-02T13:57:36.093Z,100705.20
2023-05-02T14:00:36.026Z,100704.13
2023-05-02T14:03:37.106Z,100703.81
2023-05-02T14:06:38.184Z,100697.10
2023-05-02T14:09:38.039Z,100700.59
2023-05-02T14:12:39.951Z,100702.54
2023-05-02T14:15:41.091Z,100696.46
2023-05-02T14:18:43.062Z,100700.45
2023-05-02T14:21:44.996Z,100703.05
2023-05-02T14:24:47.020Z,100699.79
2023-05-02T14:27:47.033Z,100701.08
2023-05-02T14:30:47.506Z,100695.86
2023-05-02T14:33:49.042Z,100684.37
2023-05-02T14:36:49.023Z,100676.70
2023-05-02T14:39:53.525Z,100674.27
2023-05-02T14:42:54.984Z,100670.25
2023-05-02T14:45:56.012Z,100668.19
2023-05-02T14:48:57.168Z,100671.17
2023-05-02T14:51:58.753Z,100664.20
2023-05-02T14:55:00.005Z,100660.01
2023-05-02T14:58:00.651Z,100665.59
2023-05-02T15:01:01.078Z,100672.94
2023-05-02T15:04:06.456Z,100667.02
2023-05-02T15:07:09.212Z,100663.01
2023-05-02T15:10:11.208Z,100661.42
2023-05-02T15:13:11.100Z,100657.42
2023-05-02T15:16:12.179Z,100668.07
2023-05-02T15:19:14.986Z,100659.88
2023-05-02T15:22:16.135Z,100655.87
2023-05-02T15:25:16.153Z,100641.76
2023-05-02T15:28:16.506Z,100651.35
2023-05-02T15:31:17.127Z,100652.06
2023-05-02T15:34:18.254Z,100645.45
2023-05-02T15:37:19.125Z,100649.83
2023-05-02T15:40:21.158Z,100651.74
2023-05-02T15:43:28.153Z,100643.73
2023-05-02T15:46:30.209Z,100640.42
2023-05-02T15:49:38.116Z,100641.14
2023-05-02T15:52:39.127Z,100650.37
2023-05-02T15:55:39.141Z,100641.48
2023-05-02T15:58:41.643Z,100637.45
2023-05-02T16:01:43.810Z,100651.90
2023-05-02T16:04:46.274Z,100651.71
2023-05-02T16:07:49.487Z,100639.33
2023-05-02T16:10:52.450Z,100642.64
2023-05-02T16:13:53.159Z,100644.92
2023-05-02T16:16:54.348Z,100639.16
2023-05-02T16:19:54.375Z,100631.13
2023-05-02T16:23:00.540Z,100628.16
2023-05-02T16:26:02.206Z,100625.02
2023-05-02T16:28:56.272Z,100617.88
2023-05-02T16:31:57.316Z,100623.27
2023-05-02T16:34:57.174Z,100622.38
2023-05-02T16:37:57.223Z,100625.48
2023-05-02T16:40:59.229Z,100619.38
2023-05-02T16:43:59.344Z,100623.36
2023-05-02T16:47:00.532Z,100617.23
2023-05-02T16:50:05.576Z,100614.77
2023-05-02T16:53:06.485Z,100608.44
2023-05-02T16:56:07.281Z,100604.92
2023-05-02T16:59:07.254Z,100604.37
2023-05-02T17:02:08.299Z,100602.59
2023-05-02T17:05:08.363Z,100601.16
2023-05-02T17:08:09.895Z,100608.95
2023-05-02T17:11:11.338Z,100609.27
2023-05-02T17:14:11.291Z,100603.66
2023-05-02T17:17:11.410Z,100601.70
2023-05-02T17:20:12.266Z,100607.55
2023-05-02T17:23:12.276Z,100614.10
2023-05-02T17:26:19.417Z,100615.45
2023-05-02T17:29:19.901Z,100618.19
2023-05-02T17:32:21.521Z,100621.42
2023-05-02T17:35:23.332Z,100622.89
2023-05-02T17:38:23.374Z,100621.30
2023-05-02T17:41:23.324Z,100626.48
2023-05-02T17:44:23.369Z,100626.11
2023-05-02T17:47:25.279Z,100625.56
2023-05-02T17:50:26.503Z,100631.44
2023-05-02T17:53:26.333Z,100632.28
2023-05-02T17:56:27.647Z,100631.90
2023-05-02T17:59:29.427Z,100638.45
2023-05-02T18:02:30.491Z,100638.40
2023-05-02T18:05:32.425Z,100639.39
2023-05-02T18:08:34.441Z,100642.47
2023-05-02T18:11:34.380Z,100651.43
2023-05-02T18:14:36.420Z,100656.41
2023-05-02T18:17:37.468Z,100653.23
2023-05-02T18:20:37.502Z,100648.84
2023-05-02T18:23:37.469Z,100649.12
2023-05-02T18:26:37.575Z,100645.27
2023-05-02T18:29:39.416Z,100648.11
2023-05-02T18:32:40.951Z,100643.30
2023-05-02T18:35:56.835Z,100643.52
2023-05-02T18:38:56.418Z,100640.56
2023-05-02T18:41:56.430Z,100639.04
2023-05-02T18:44:56.448Z,100644.57
2023-05-02T18:47:58.455Z,100648.70
2023-05-02T18:50:59.659Z,100641.92
2023-05-02T18:54:00.469Z,100642.25
2023-05-02T18:57:01.469Z,100648.15
2023-05-02T19:00:04.023Z,100651.80
2023-05-02T19:03:07.620Z,100654.73
2023-05-02T19:06:08.580Z,100654.21
2023-05-02T19:09:11.484Z,100653.33
2023-05-02T19:12:11.468Z,100653.38
2023-05-02T19:15:12.682Z,100654.16
2023-05-02T19:18:13.015Z,100658.58
2023-05-02T19:21:20.544Z,100656.23
2023-05-02T19:24:25.625Z,100657.14
2023-05-02T19:27:26.832Z,100654.57
2023-05-02T19:30:27.667Z,100657.08
2023-05-02T19:33:27.520Z,100655.26
2023-05-02T19:36:28.533Z,100656.88
2023-05-02T19:39:29.652Z,100654.01
2023-05-02T19:42:31.741Z,100655.45
2023-05-02T19:45:39.374Z,100651.38
2023-05-02T19:48:41.644Z,100652.48
2023-05-02T19:51:41.551Z,100651.87
2023-05-02T19:54:42.065Z,100652.29
2023-05-02T19:57:42.753Z,100656.33
2023-05-02T20:00:44.686Z,100660.72
2023-05-02T20:03:44.681Z,100663.23
2023-05-02T20:06:45.632Z,100662.78
2023-05-02T20:09:45.594Z,100661.63
2023-05-02T20:12:45.592Z,100658.95
2023-05-02T20:15:45.635Z,100656.91
2023-05-02T20:18:46.608Z,100660.27
2023-05-02T20:21:49.587Z,100662.59
2023-05-02T20:24:49.597Z,100662.48
2023-05-02T20:27:49.604Z,100658.58
2023-05-02T20:30:49.653Z,100660.92
2023-05-02T20:33:50.582Z,100656.37
2023-05-02T20:36:58.673Z,100664.06
2023-05-02T20:39:58.854Z,100656.34
2023-05-02T20:42:59.675Z,100663.80
2023-05-02T20:45:59.651Z,100659.33
2023-05-02T20:49:01.765Z,100667.33
2023-05-02T20:52:02.673Z,100666.14
2023-05-02T20:55:02.682Z,100664.78
2023-05-02T20:58:02.713Z,100665.66
2023-05-02T21:01:02.702Z,100668.27
2023-05-02T21:04:04.726Z,100671.34
2023-05-02T21:07:04.872Z,100680.16
2023-05-02T21:10:05.031Z,100677.27
2023-05-02T21:13:05.673Z,100668.33
2023-05-02T21:16:08.012Z,100675.73
2023-05-02T21:19:07.776Z,100672.63
2023-05-02T21:22:07.668Z,100675.61
2023-05-02T21:25:08.746Z,100681.84
2023-05-02T21:28:08.723Z,100675.98
2023-05-02T21:31:08.757Z,100674.06
2023-05-02T21:34:08.710Z,100675.27
2023-05-02T21:37:11.251Z,100676.48
2023-05-02T21:40:11.681Z,100680.80
2023-05-02T21:43:11.744Z,100685.17
2023-05-02T21:46:12.743Z,100684.16
2023-05-02T21:49:12.771Z,100688.40
2023-05-02T21:52:12.763Z,100680.02
2023-05-02T21:55:12.741Z,100678.32
2023-05-02T21:58:12.949Z,100672.88
2023-05-02T22:01:13.781Z,100669.01
2023-05-02T22:04:15.110Z,100667.41
2023-05-02T22:07:14.748Z,100670.27
2023-05-02T22:10:14.794Z,100663.86
2023-05-02T22:13:17.773Z,100663.71
2023-05-02T22:16:17.799Z,100668.72
2023-05-02T22:19:17.789Z,100670.50
2023-05-02T22:22:17.953Z,100663.63
2023-05-02T22:25:17.866Z,100668.41
2023-05-02T22:28:17.835Z,100672.55
2023-05-02T22:31:17.874Z,100674.75
2023-05-02T22:34:17.817Z,100677.34
2023-05-02T22:37:18.827Z,100671.40
2023-05-02T22:40:18.798Z,100670.30
2023-05-02T22:43:18.936Z,100671.21
2023-05-02T22:46:19.878Z,100674.38
2023-05-02T22:49:20.853Z,100672.02
2023-05-02T22:52:20.924Z,100675.23
2023-05-02T22:55:20.876Z,100678.39
2023-05-02T22:58:20.876Z,100680.54
2023-05-02T23:01:20.865Z,100687.63
2023-05-02T23:04:20.850Z,100696.52
2023-05-02T23:07:21.086Z,100696.23
2023-05-02T23:10:20.866Z,100699.88
2023-05-02T23:13:20.930Z,100700.09
2023-05-02T23:16:20.901Z,100696.02
2023-05-02T23:19:21.911Z,100701.06
2023-05-02T23:22:21.921Z,100694.58
2023-05-02T23:25:24.005Z,100699.88
2023-05-02T23:28:26.214Z,100694.36
2023-05-02T23:31:26.953Z,100699.71
2023-05-02T23:34:26.892Z,100704.05
2023-05-02T23:37:26.949Z,100702.72
2023-05-02T23:40:27.977Z,100704.33
2023-05-02T23:43:28.936Z,100706.94
2023-05-02T23:46:30.013Z,100697.48
2023-05-02T23:49:30.953Z,100694.56
2023-05-02T23:52:30.968Z,100699.41
2023-05-02T23:55:30.956Z,100694.04
2023-05-02T23:58:31.919Z,100690.48
